Time;durP1;ratioP1;P1;durP2;ratioP2;P2;SDS_P1;SDS_P2;PMS_P1;PMS_P2;Temp;Humidity;BMP_temperature;BMP_pressure;BME280_temperature;BME280_humidity;BME280_pressure;Samples;Min_cycle;Max_cycle;Signal;HPM_P1;HPM_P2
2021/04/22 00:01:32;;;;;;;43.13;31.05;;;11.70;99.90;;;11.55;75.23;101323.81;4089543;29;20032;-69
2021/04/22 00:03:33;;;;;;;43.25;30.88;;;11.70;99.90;;;11.49;75.53;101312.03;4089616;29;20036;-69
2021/04/22 00:05:38;;;;;;;46.45;33.47;;;11.70;99.90;;;11.57;74.49;101319.19;4089619;29;20038;-69
2021/04/22 00:07:39;;;;;;;49.10;33.70;;;11.60;99.90;;;11.53;75.47;101321.28;4089862;29;20079;-69
2021/04/22 00:09:40;;;;;;;44.40;32.15;;;11.60;99.90;;;11.44;76.04;101322.19;4089467;29;20056;-69
2021/04/22 00:11:41;;;;;;;47.08;34.45;;;11.60;99.90;;;11.34;76.16;101312.66;4089358;29;20470;-69
2021/04/22 00:13:42;;;;;;;39.05;30.23;;;11.50;99.90;;;11.38;76.17;101317.50;4088285;29;20055;-69
2021/04/22 00:15:44;;;;;;;49.05;33.30;;;11.50;99.90;;;11.26;76.71;101302.00;4089361;29;20415;-69
2021/04/22 00:17:47;;;;;;;42.60;30.48;;;11.40;99.90;;;11.27;76.54;101311.56;4088193;29;20110;-69
2021/04/22 00:19:48;;;;;;;46.93;31.93;;;11.40;99.90;;;11.21;76.86;101320.06;4088289;29;20095;-69
2021/04/22 00:21:49;;;;;;;42.97;31.42;;;11.40;99.90;;;11.19;76.69;101324.69;4104029;29;20034;-69
2021/04/22 00:23:50;;;;;;;43.67;34.00;;;11.30;99.90;;;11.34;76.63;101317.94;4089356;29;20494;-69
2021/04/22 00:25:51;;;;;;;43.20;31.50;;;11.30;99.90;;;11.50;75.74;101318.13;4088989;29;20115;-69
2021/04/22 00:27:53;;;;;;;43.42;31.80;;;11.40;99.90;;;11.33;76.19;101322.38;4088124;29;20032;-69
2021/04/22 00:29:54;;;;;;;46.40;34.70;;;11.40;99.90;;;11.12;77.92;101311.22;4089306;29;20115;-69
2021/04/22 00:31:55;;;;;;;43.45;31.73;;;11.40;99.90;;;11.22;76.59;101309.38;4087941;29;20495;-69
2021/04/22 00:33:55;;;;;;;44.13;32.00;;;11.40;99.90;;;11.03;77.66;101312.09;4074031;29;20039;-69
2021/04/22 00:35:56;;;;;;;40.45;29.85;;;11.30;99.90;;;10.93;78.28;101320.03;4072315;29;20518;-69
2021/04/22 00:37:57;;;;;;;46.50;33.67;;;11.20;99.90;;;10.88;77.86;101317.00;4081074;29;20038;-69
2021/04/22 00:39:58;;;;;;;47.15;34.88;;;11.10;99.90;;;10.92;78.41;101325.47;4087963;29;20027;-69
2021/04/22 00:41:59;;;;;;;49.47;35.13;;;11.00;99.90;;;10.80;79.04;101324.81;4088759;29;20068;-69
2021/04/22 00:44:00;;;;;;;42.92;32.42;;;11.00;99.90;;;10.78;79.07;101329.41;4084951;29;20040;-69
2021/04/22 00:46:01;;;;;;;47.78;31.88;;;10.90;99.90;;;10.78;79.28;101324.13;4072081;29;20123;-69
2021/04/22 00:48:02;;;;;;;44.55;31.92;;;10.90;99.90;;;10.74;79.18;101321.91;4073287;29;20436;-69
2021/04/22 00:50:11;;;;;;;43.47;32.78;;;10.90;99.90;;;10.78;78.86;101315.38;4076128;29;20028;-69
2021/04/22 00:52:12;;;;;;;42.40;31.73;;;10.80;99.90;;;10.76;79.66;101323.44;4087655;29;20028;-69
2021/04/22 00:54:13;;;;;;;41.20;30.90;;;10.80;99.90;;;10.65;79.22;101320.97;4087785;29;20035;-69
2021/04/22 00:56:15;;;;;;;41.75;31.92;;;10.80;99.90;;;10.49;79.83;101307.53;4088610;29;20031;-69
2021/04/22 00:58:16;;;;;;;43.72;31.88;;;10.70;99.90;;;10.43;80.20;101326.56;4071680;29;20032;-69
2021/04/22 01:00:22;;;;;;;42.45;30.92;;;10.60;99.90;;;10.43;80.06;101330.03;4088906;29;20027;-69
2021/04/22 01:02:23;;;;;;;41.63;32.10;;;10.60;99.90;;;10.39;79.88;101322.56;4088985;29;20411;-69
2021/04/22 01:04:24;;;;;;;42.65;31.48;;;10.50;99.90;;;10.30;80.63;101320.75;4087455;29;20028;-69
2021/04/22 01:06:25;;;;;;;43.65;31.58;;;10.50;99.90;;;10.25;81.47;101323.78;4087324;29;20028;-69
2021/04/22 01:08:26;;;;;;;45.83;33.42;;;10.40;99.90;;;10.15;81.52;101309.81;4088777;29;20020;-69
2021/04/22 01:10:28;;;;;;;40.90;31.88;;;10.40;99.90;;;10.20;82.25;101322.56;4087414;29;20024;-69
2021/04/22 01:12:29;;;;;;;41.47;31.88;;;10.40;99.90;;;10.23;81.46;101324.91;4088697;29;20028;-69
2021/04/22 01:14:29;;;;;;;45.05;33.28;;;10.30;99.90;;;10.24;80.96;101324.78;4088555;29;20038;-69
2021/04/22 01:16:30;;;;;;;45.03;33.75;;;10.30;99.90;;;10.29;81.07;101319.06;4088867;29;20039;-69
2021/04/22 01:18:31;;;;;;;42.50;32.60;;;10.30;99.90;;;10.25;81.60;101321.16;4088638;29;20031;-69
2021/04/22 01:20:39;;;;;;;51.35;34.20;;;10.30;99.90;;;10.20;81.52;101325.19;4088600;29;20028;-69
2021/04/22 01:22:40;;;;;;;46.10;33.92;;;10.30;99.90;;;10.18;82.00;101324.50;4087269;29;20416;-71
2021/04/22 01:24:40;;;;;;;44.60;33.35;;;10.30;99.90;;;10.13;81.61;101329.31;4087352;29;20090;-70
2021/04/22 01:26:41;;;;;;;43.65;32.08;;;10.30;99.90;;;9.91;82.14;101312.81;4088145;29;20027;-69
2021/04/22 01:28:42;;;;;;;47.47;33.83;;;10.20;99.90;;;9.93;82.50;101318.78;4087249;29;20515;-69
2021/04/22 01:30:49;;;;;;;43.88;36.08;;;10.10;99.90;;;9.96;82.56;101325.56;4087154;29;20028;-69
2021/04/22 01:32:50;;;;;;;45.08;33.20;;;10.20;99.90;;;9.93;82.72;101321.41;4087386;29;20102;-69
2021/04/22 01:34:51;;;;;;;44.88;33.42;;;10.10;99.90;;;9.91;82.68;101328.63;4087256;29;20412;-69
2021/04/22 01:36:52;;;;;;;48.33;34.83;;;10.10;99.90;;;9.75;83.17;101316.94;4087203;29;20031;-69
2021/04/22 01:38:53;;;;;;;47.95;35.03;;;10.00;99.90;;;9.81;83.36;101325.13;4088229;29;20083;-69
2021/04/22 01:40:55;;;;;;;44.03;33.17;;;10.00;99.90;;;9.87;83.15;101321.97;4086959;29;20031;-69
2021/04/22 01:42:57;;;;;;;48.22;33.03;;;10.00;99.90;;;9.86;82.82;101315.00;4088361;29;20024;-69
2021/04/22 01:44:59;;;;;;;45.03;32.75;;;10.00;99.90;;;9.94;82.36;101311.72;4087127;29;20060;-69
2021/04/22 01:47:00;;;;;;;45.85;32.50;;;10.00;99.90;;;9.79;82.21;101313.91;4086975;29;20066;-69
2021/04/22 01:49:03;;;;;;;44.75;32.53;;;9.90;99.90;;;9.71;83.21;101316.38;4102996;29;20072;-69
2021/04/22 01:51:05;;;;;;;44.63;33.67;;;9.90;99.90;;;9.72;83.08;101327.75;4075921;29;20059;-69
2021/04/22 01:53:08;;;;;;;42.70;31.90;;;9.90;99.90;;;9.56;83.96;101306.41;4072765;29;20365;-69
2021/04/22 01:55:14;;;;;;;46.38;34.67;;;9.80;99.90;;;9.64;83.46;101302.09;4071186;29;20043;-69
2021/04/22 01:57:14;;;;;;;41.80;32.80;;;9.80;99.90;;;9.78;83.26;101324.56;4070999;29;20068;-69
2021/04/22 01:59:15;;;;;;;43.85;31.45;;;9.80;99.90;;;9.72;83.33;101315.41;4072404;29;20519;-69
2021/04/22 02:01:16;;;;;;;50.70;36.03;;;9.80;99.90;;;9.84;82.95;101316.13;4071375;29;20024;-69
2021/04/22 02:03:17;;;;;;;42.63;32.25;;;9.80;99.90;;;9.73;83.42;101309.19;4071316;29;20032;-69
2021/04/22 02:05:21;;;;;;;48.63;35.20;;;9.80;99.90;;;9.70;83.71;101313.91;4072336;29;20035;-69
2021/04/22 02:07:22;;;;;;;45.75;34.72;;;9.80;99.90;;;9.65;83.44;101319.56;4071321;29;20035;-69
2021/04/22 02:09:23;;;;;;;46.47;33.28;;;9.80;99.90;;;9.69;83.83;101322.75;4071174;29;20036;-69
2021/04/22 02:11:24;;;;;;;45.00;34.35;;;9.80;99.90;;;9.70;83.62;101320.00;4078410;29;20075;-69
2021/04/22 02:13:27;;;;;;;48.25;33.30;;;9.90;99.90;;;9.75;84.11;101322.22;4090391;29;20451;-69
2021/04/22 02:15:30;;;;;;;50.58;35.80;;;9.90;99.90;;;9.71;83.77;101319.00;4074269;29;20036;-69
2021/04/22 02:17:31;;;;;;;46.58;35.65;;;9.90;99.90;;;9.73;83.55;101326.78;4090030;29;20455;-69
2021/04/22 02:19:32;;;;;;;45.25;34.20;;;9.90;99.90;;;9.75;83.42;101332.75;4090176;29;20051;-69
2021/04/22 02:21:33;;;;;;;48.03;34.97;;;9.90;99.90;;;9.66;83.46;101333.56;4091283;29;20534;-69
2021/04/22 02:23:34;;;;;;;55.25;38.45;;;9.80;99.90;;;9.90;83.20;101332.22;4091260;29;20039;-69
2021/04/22 02:25:35;;;;;;;45.78;35.47;;;9.90;99.90;;;9.97;82.35;101332.50;4091086;29;20038;-69
2021/04/22 02:27:38;;;;;;;54.90;37.72;;;10.00;99.90;;;9.77;82.68;101331.66;4091210;29;20487;-69
2021/04/22 02:29:39;;;;;;;46.38;34.50;;;10.00;99.90;;;9.76;83.80;101330.00;4091154;29;20070;-69
2021/04/22 02:31:40;;;;;;;44.90;34.20;;;9.90;99.90;;;9.74;83.55;101334.56;4091096;29;20103;-69
2021/04/22 02:33:41;;;;;;;50.55;37.65;;;9.90;99.90;;;9.74;83.71;101342.44;4091012;29;20406;-69
2021/04/22 02:35:45;;;;;;;47.83;35.60;;;9.90;99.90;;;9.71;83.55;101332.19;4091084;29;20063;-69
2021/04/22 02:37:48;;;;;;;50.70;36.20;;;9.90;99.90;;;9.77;83.06;101336.91;4090156;29;20058;-69
2021/04/22 02:39:49;;;;;;;49.53;35.92;;;9.90;99.90;;;9.78;83.35;101346.50;4089767;29;20454;-69
2021/04/22 02:41:50;;;;;;;47.45;34.53;;;9.90;99.90;;;9.73;83.54;101330.28;4073566;29;20068;-69
2021/04/22 02:43:51;;;;;;;51.53;37.40;;;10.00;99.90;;;9.77;83.40;101342.19;4089482;29;20048;-69
2021/04/22 02:45:55;;;;;;;48.30;36.67;;;10.00;99.90;;;9.83;83.47;101348.69;4083966;29;20115;-69
2021/04/22 02:47:57;;;;;;;50.10;37.17;;;9.90;99.90;;;9.74;83.80;101336.34;4075171;29;20028;-69
2021/04/22 02:49:58;;;;;;;50.50;37.08;;;9.90;99.90;;;9.74;83.76;101346.88;4077483;29;20036;-69
2021/04/22 02:51:59;;;;;;;55.30;37.40;;;9.90;99.90;;;9.77;83.28;101347.44;4089558;29;20075;-69
2021/04/22 02:54:01;;;;;;;45.92;35.85;;;9.90;99.90;;;9.71;84.02;101347.16;4090962;29;20031;-69
2021/04/22 02:56:02;;;;;;;53.85;38.00;;;9.90;99.90;;;9.91;82.79;101343.59;4090545;29;20463;-69
2021/04/22 02:58:04;;;;;;;50.65;37.28;;;9.90;99.90;;;9.88;82.79;101355.25;4089471;29;20455;-69
2021/04/22 03:00:10;;;;;;;57.00;40.17;;;9.90;99.90;;;9.83;83.00;101343.44;4090703;29;20039;-69
2021/04/22 03:02:11;;;;;;;53.05;37.60;;;9.90;99.90;;;9.75;83.40;101353.81;4090598;29;20127;-69
2021/04/22 03:04:12;;;;;;;54.63;39.80;;;9.90;99.90;;;9.76;83.23;101351.06;4089380;29;20119;-69
2021/04/22 03:06:13;;;;;;;52.65;37.88;;;9.90;99.90;;;9.73;83.66;101356.63;4089251;29;20495;-69
2021/04/22 03:08:15;;;;;;;49.70;35.88;;;9.90;99.90;;;9.58;84.43;101347.44;4090770;29;20024;-69
2021/04/22 03:10:18;;;;;;;47.47;36.92;;;9.80;99.90;;;9.64;83.89;101351.31;4073499;29;20060;-69
2021/04/22 03:12:19;;;;;;;50.80;37.28;;;9.80;99.90;;;9.50;84.40;101349.06;4090656;29;20028;-69
2021/04/22 03:14:21;;;;;;;54.20;38.50;;;9.70;99.90;;;9.54;84.90;101348.66;4089279;29;20043;-69
2021/04/22 03:16:22;;;;;;;53.95;40.40;;;9.70;99.90;;;9.65;84.06;101351.16;4090528;29;20035;-69
2021/04/22 03:18:23;;;;;;;47.28;37.10;;;9.70;99.90;;;9.54;84.74;101355.72;4089318;29;20043;-69
2021/04/22 03:20:25;;;;;;;53.80;39.65;;;9.60;99.90;;;9.52;84.99;101355.03;4090450;29;20059;-69
2021/04/22 03:22:26;;;;;;;51.22;38.72;;;9.70;99.90;;;9.51;84.48;101348.91;4089000;29;20028;-69
2021/04/22 03:24:27;;;;;;;54.85;39.47;;;9.60;99.90;;;9.36;84.96;101343.19;4090149;29;20043;-69
2021/04/22 03:26:28;;;;;;;54.13;38.28;;;9.60;99.90;;;9.37;85.67;101354.56;4090153;29;20384;-69
2021/04/22 03:28:29;;;;;;;54.67;41.17;;;9.60;99.90;;;9.45;84.85;101352.94;4088891;29;20123;-69
2021/04/22 03:30:32;;;;;;;55.10;40.58;;;9.60;99.90;;;9.48;84.51;101354.44;4090189;29;20530;-69
2021/04/22 03:32:33;;;;;;;51.40;38.25;;;9.60;99.90;;;9.37;84.64;101338.75;4090153;29;20024;-69
2021/04/22 03:34:34;;;;;;;54.28;39.30;;;9.60;99.90;;;9.46;84.38;101351.13;4088942;29;20075;-69
2021/04/22 03:36:35;;;;;;;55.08;40.13;;;9.50;99.90;;;9.47;84.88;101360.69;4088975;29;20083;-69
2021/04/22 03:38:36;;;;;;;58.78;41.90;;;9.60;99.90;;;9.40;85.45;101344.59;4090224;29;20160;-69
2021/04/22 03:40:37;;;;;;;60.35;41.90;;;9.60;99.90;;;9.66;84.38;101366.00;4088576;29;20514;-69
2021/04/22 03:42:38;;;;;;;54.50;40.80;;;9.60;99.90;;;9.51;84.80;101346.28;4090149;29;20486;-69
2021/04/22 03:44:39;;;;;;;57.95;43.22;;;9.60;99.90;;;9.51;84.53;101364.72;4088593;29;20435;-69
2021/04/22 03:46:40;;;;;;;60.63;45.20;;;9.60;99.90;;;9.55;84.52;101363.50;4088730;29;20032;-69
2021/04/22 03:48:41;;;;;;;62.53;43.42;;;9.70;99.90;;;9.52;84.62;101368.19;4089955;29;20558;-69
2021/04/22 03:50:42;;;;;;;56.40;41.08;;;9.70;99.90;;;9.43;85.09;101354.03;4080590;29;20063;-69
2021/04/22 03:52:43;;;;;;;53.67;39.60;;;9.70;99.90;;;9.44;85.46;101366.22;4074130;29;20377;-69
2021/04/22 03:54:44;;;;;;;58.10;41.85;;;9.60;99.90;;;9.40;85.54;101364.81;4074118;29;20385;-69
2021/04/22 03:56:45;;;;;;;60.20;41.28;;;9.60;99.90;;;9.27;85.09;101359.78;4073644;29;20035;-69
2021/04/22 03:58:46;;;;;;;61.67;42.00;;;9.50;99.90;;;9.18;85.23;101357.94;4072809;29;20128;-69
2021/04/22 04:00:47;;;;;;;60.88;40.63;;;9.40;99.90;;;9.19;86.47;101364.03;4081328;29;20024;-69
2021/04/22 04:02:48;;;;;;;57.15;41.35;;;9.50;99.90;;;9.24;85.47;101361.84;4072747;29;20038;-69
2021/04/22 04:04:49;;;;;;;58.85;43.30;;;9.40;99.90;;;9.28;85.97;101352.72;4072566;29;20121;-69
2021/04/22 04:06:50;;;;;;;60.40;42.53;;;9.50;99.90;;;9.15;86.50;101358.22;4072822;29;20032;-69
2021/04/22 04:08:51;;;;;;;60.13;44.28;;;9.40;99.90;;;9.17;86.61;101358.09;4073873;29;20043;-69
2021/04/22 04:10:52;;;;;;;65.45;45.60;;;9.30;99.90;;;9.30;86.11;101372.69;4073642;29;20407;-69
2021/04/22 04:12:53;;;;;;;63.50;45.35;;;9.40;99.90;;;9.33;86.02;101358.41;4073678;29;20020;-69
2021/04/22 04:14:55;;;;;;;65.85;45.13;;;9.40;99.90;;;9.40;86.67;101364.81;4072590;29;20028;-69
2021/04/22 04:16:55;;;;;;;58.80;44.72;;;9.40;99.90;;;9.57;84.89;101364.19;4065150;29;20028;-69
2021/04/22 04:18:57;;;;;;;60.95;43.30;;;9.60;99.90;;;9.52;84.67;101369.03;4073728;29;20083;-69
2021/04/22 04:20:58;;;;;;;64.07;42.80;;;9.60;99.90;;;9.49;85.08;101369.28;4073758;29;20071;-69
2021/04/22 04:22:59;;;;;;;65.72;45.78;;;9.60;99.90;;;9.47;85.09;101362.50;4073722;29;20028;-69
2021/04/22 04:24:59;;;;;;;59.53;43.05;;;9.60;99.90;;;9.49;85.09;101371.09;4072446;29;20032;-69
2021/04/22 04:27:00;;;;;;;64.40;43.95;;;9.70;99.90;;;9.29;85.40;101375.44;4083412;29;20074;-69
2021/04/22 04:29:02;;;;;;;60.85;43.22;;;9.60;99.90;;;9.45;85.31;101381.06;4086717;29;20071;-69
2021/04/22 04:31:03;;;;;;;61.78;44.65;;;9.50;99.90;;;9.30;86.05;101372.69;4073598;29;20028;-69
2021/04/22 04:33:05;;;;;;;64.45;44.42;;;9.50;99.90;;;9.38;85.42;101372.84;4080052;29;20026;-69
2021/04/22 04:35:08;;;;;;;63.30;44.50;;;9.50;99.90;;;9.38;85.66;101379.91;4103806;29;20058;-69
2021/04/22 04:37:09;;;;;;;65.15;46.30;;;9.60;99.90;;;9.40;85.74;101370.09;4087783;29;20032;-69
2021/04/22 04:39:11;;;;;;;65.07;47.00;;;9.60;99.90;;;9.53;85.65;101380.41;4087934;29;20043;-69
2021/04/22 04:41:12;;;;;;;61.60;42.55;;;9.60;99.90;;;9.41;85.78;101379.63;4088680;29;20090;-69
2021/04/22 04:43:13;;;;;;;64.53;42.53;;;9.50;99.90;;;9.34;85.22;101383.78;4088632;29;20031;-69
2021/04/22 04:45:18;;;;;;;60.58;42.70;;;9.60;99.90;;;9.15;85.34;101387.16;4087604;29;20032;-69
2021/04/22 04:47:19;;;;;;;65.07;43.00;;;9.40;99.90;;;9.23;86.67;101389.13;4087739;29;20546;-69
2021/04/22 04:49:20;;;;;;;64.10;44.53;;;9.40;99.90;;;9.36;85.87;101395.00;4081341;29;20032;-69
2021/04/22 04:51:21;;;;;;;63.25;46.53;;;9.50;99.90;;;9.38;86.15;101400.97;4076675;29;20038;-69
2021/04/22 04:53:22;;;;;;;66.05;45.90;;;9.50;99.90;;;9.34;86.30;101394.31;4086861;29;20098;-69
2021/04/22 04:55:23;;;;;;;60.70;42.83;;;9.50;99.90;;;9.23;86.70;101389.13;4088852;29;20059;-69
2021/04/22 04:57:23;;;;;;;58.25;41.95;;;9.50;99.90;;;9.08;87.78;101385.19;4087741;29;20087;-69
2021/04/22 04:59:24;;;;;;;62.50;46.50;;;9.40;99.90;;;9.28;86.52;101397.47;4071743;29;20055;-69
2021/04/22 05:01:25;;;;;;;65.38;44.00;;;9.40;99.90;;;9.36;85.54;101395.00;4088614;29;20491;-69
2021/04/22 05:03:26;;;;;;;66.05;45.70;;;9.60;99.90;;;9.34;86.35;101407.50;4087641;29;20457;-69
2021/04/22 05:05:28;;;;;;;59.72;43.75;;;9.50;99.90;;;9.19;87.35;101412.28;4088530;29;20020;-69
2021/04/22 05:07:29;;;;;;;63.58;43.85;;;9.50;99.90;;;9.22;87.23;101408.53;4087522;29;20032;-69
2021/04/22 05:09:30;;;;;;;62.45;44.03;;;9.40;99.90;;;9.25;86.86;101408.28;4088315;29;20087;-69
2021/04/22 05:11:31;;;;;;;63.38;44.78;;;9.50;99.90;;;9.25;86.28;101424.91;4087329;29;20028;-69
2021/04/22 05:13:32;;;;;;;66.28;45.58;;;9.40;99.90;;;9.24;86.65;101425.03;4088685;29;20047;-69
2021/04/22 05:15:33;;;;;;;66.32;43.90;;;9.50;99.90;;;9.33;86.54;101426.88;4087498;29;20038;-69
2021/04/22 05:17:34;;;;;;;64.30;45.10;;;9.50;99.90;;;9.28;86.11;101408.00;4088399;29;20024;-69
2021/04/22 05:19:35;;;;;;;57.60;42.03;;;9.50;99.90;;;9.29;86.55;101423.66;4087324;29;20523;-69
2021/04/22 05:21:36;;;;;;;66.32;45.40;;;9.40;99.90;;;9.23;86.34;101418.06;4088645;29;20060;-69
2021/04/22 05:23:37;;;;;;;62.47;44.22;;;9.50;99.90;;;9.26;86.59;101429.19;4086909;29;20106;-69
2021/04/22 05:25:37;;;;;;;67.78;45.50;;;9.50;99.90;;;9.15;87.10;101410.84;4088258;29;20035;-69
2021/04/22 05:27:38;;;;;;;70.80;45.70;;;9.40;99.90;;;9.21;86.18;101417.38;4088301;29;20043;-69
2021/04/22 05:29:39;;;;;;;67.00;45.20;;;9.40;99.90;;;9.29;86.89;101430.72;4088502;29;20399;-69
2021/04/22 05:31:40;;;;;;;62.33;43.97;;;9.40;99.90;;;9.30;86.34;101422.72;4088338;29;20491;-69
2021/04/22 05:33:41;;;;;;;61.00;42.38;;;9.50;99.90;;;9.21;87.11;101434.03;4087153;29;20042;-69
2021/04/22 05:35:43;;;;;;;57.05;40.63;;;9.40;99.90;;;9.24;86.47;101433.75;4071290;29;20028;-69
2021/04/22 05:37:44;;;;;;;66.03;45.35;;;9.50;99.90;;;9.31;86.66;101444.59;4086977;29;20063;-69
2021/04/22 05:39:45;;;;;;;70.97;44.88;;;9.40;99.90;;;9.30;86.52;101446.41;4087090;29;20495;-69
2021/04/22 05:41:46;;;;;;;65.25;44.45;;;9.50;99.90;;;9.31;86.57;101434.06;4086762;29;20032;-70
2021/04/22 05:43:47;;;;;;;56.28;40.33;;;9.50;99.90;;;9.23;86.69;101434.72;4073527;29;20058;-71
2021/04/22 05:45:48;;;;;;;64.80;44.22;;;9.50;99.90;;;9.26;85.49;101441.50;4082206;29;20024;-71
2021/04/22 05:47:49;;;;;;;63.97;41.63;;;9.50;99.90;;;9.38;85.96;101437.84;4072373;29;20028;-71
2021/04/22 05:49:50;;;;;;;57.75;41.70;;;9.50;99.90;;;9.34;86.56;101439.09;4074665;29;20065;-71
2021/04/22 05:51:51;;;;;;;61.90;42.83;;;9.60;99.90;;;9.35;86.68;101438.09;4074971;29;20036;-71
2021/04/22 05:53:52;;;;;;;64.20;43.83;;;9.60;99.90;;;9.40;86.63;101438.56;4088054;29;20411;-71
2021/04/22 05:55:53;;;;;;;62.30;42.47;;;9.60;99.90;;;9.52;85.75;101437.50;4087779;29;20055;-71
2021/04/22 05:57:59;;;;;;;63.13;42.72;;;9.70;99.90;;;9.51;85.99;101446.38;4088053;29;20090;-71
2021/04/22 06:00:00;;;;;;;60.35;42.58;;;9.70;99.90;;;9.44;86.99;101446.03;4087891;29;20032;-71
2021/04/22 06:02:02;;;;;;;60.17;42.25;;;9.80;99.90;;;9.68;85.21;101453.63;4088037;29;20040;-71
2021/04/22 06:04:04;;;;;;;64.78;43.75;;;9.80;99.90;;;9.69;85.75;101459.75;4087879;29;20063;-71
2021/04/22 06:06:05;;;;;;;62.65;42.35;;;9.90;99.90;;;9.54;86.34;101438.19;4087798;29;20082;-71
2021/04/22 06:08:06;;;;;;;59.35;42.22;;;9.90;99.90;;;9.60;86.24;101450.84;4086535;29;20030;-70
2021/04/22 06:10:08;;;;;;;62.72;42.13;;;10.00;99.90;;;9.68;86.02;101466.81;4087686;29;20499;-72
2021/04/22 06:12:09;;;;;;;58.88;39.67;;;10.00;99.90;;;9.73;85.60;101469.91;4086742;29;20455;-72
2021/04/22 06:14:10;;;;;;;58.97;41.30;;;10.00;99.90;;;9.85;84.76;101483.81;4086684;29;20032;-72
2021/04/22 06:16:13;;;;;;;64.43;41.80;;;10.10;99.90;;;9.83;84.33;101476.03;4087650;29;20542;-72
2021/04/22 06:18:14;;;;;;;60.30;41.88;;;10.10;99.90;;;9.79;84.77;101476.44;4086558;29;20061;-72
2021/04/22 06:20:19;;;;;;;57.72;41.28;;;10.20;99.90;;;9.89;85.71;101482.56;4087922;29;20035;-71
2021/04/22 06:22:20;;;;;;;59.47;40.20;;;10.20;99.90;;;9.96;84.22;101481.91;4087825;29;20043;-71
2021/04/22 06:24:21;;;;;;;62.85;43.28;;;10.30;99.90;;;9.93;84.48;101489.22;4087770;29;20114;-71
2021/04/22 06:26:23;;;;;;;59.05;40.70;;;10.40;99.90;;;9.91;84.82;101491.19;4087582;29;20624;-71
2021/04/22 06:28:24;;;;;;;58.38;40.00;;;10.40;99.90;;;10.01;84.51;101498.13;4086509;29;20024;-71
2021/04/22 06:30:27;;;;;;;63.88;42.85;;;10.40;99.90;;;9.88;84.86;101497.56;4086654;29;20454;-71
2021/04/22 06:32:28;;;;;;;61.45;41.88;;;10.40;99.90;;;10.07;84.02;101501.19;4086176;29;20055;-71
2021/04/22 06:34:29;;;;;;;64.68;40.97;;;10.50;99.90;;;10.13;84.30;101509.44;4087785;29;20036;-71
2021/04/22 06:36:30;;;;;;;62.45;41.97;;;10.60;99.90;;;10.16;84.48;101516.25;4087804;29;20036;-71
2021/04/22 06:38:31;;;;;;;63.58;40.90;;;10.60;99.90;;;10.15;83.97;101515.44;4086443;29;20055;-71
2021/04/22 06:40:32;;;;;;;56.80;41.13;;;10.70;99.90;;;10.14;84.33;101513.75;4087279;29;20039;-71
2021/04/22 06:42:33;;;;;;;53.58;38.83;;;10.70;99.90;;;10.03;84.27;101495.38;4086466;29;20035;-71
2021/04/22 06:44:34;;;;;;;58.33;40.03;;;10.70;99.90;;;10.23;83.52;101518.22;4086191;29;20115;-71
2021/04/22 06:46:36;;;;;;;55.20;39.65;;;10.70;99.90;;;10.24;84.15;101522.53;4074995;29;20032;-71
2021/04/22 06:48:37;;;;;;;52.33;39.10;;;10.80;99.90;;;10.29;83.85;101515.03;4072029;29;20079;-71
2021/04/22 06:50:38;;;;;;;56.92;38.92;;;10.80;99.90;;;10.38;83.63;101513.41;4075501;29;20116;-71
2021/04/22 06:52:40;;;;;;;56.63;38.60;;;10.90;99.90;;;10.27;84.19;101518.78;4080284;29;20042;-71
2021/04/22 06:54:41;;;;;;;60.83;41.67;;;10.90;99.90;;;10.40;84.08;101522.00;4087409;29;20043;-71
2021/04/22 06:56:42;;;;;;;60.10;40.10;;;10.90;99.90;;;10.25;84.15;101521.53;4089068;29;20032;-71
2021/04/22 06:58:43;;;;;;;56.67;40.03;;;10.90;99.90;;;10.41;84.32;101523.69;4090473;29;20034;-71
2021/04/22 07:00:44;;;;;;;55.28;38.45;;;11.00;99.90;;;10.41;84.35;101526.31;4090472;29;20032;-71
2021/04/22 07:02:46;;;;;;;56.95;40.05;;;11.00;99.90;;;10.28;84.73;101536.25;4090442;29;20115;-71
2021/04/22 07:04:48;;;;;;;55.70;37.10;;;11.00;99.90;;;10.43;84.70;101521.72;4090341;29;20035;-71
2021/04/22 07:06:49;;;;;;;59.83;39.10;;;11.00;99.90;;;10.54;83.91;101525.06;4090564;29;20027;-71
2021/04/22 07:08:50;;;;;;;58.03;39.40;;;11.10;99.90;;;10.45;84.21;101525.88;4090363;29;20398;-71
2021/04/22 07:10:51;;;;;;;57.47;39.80;;;11.20;99.90;;;10.28;84.35;101515.16;4088875;29;20152;-71
2021/04/22 07:12:52;;;;;;;59.42;37.03;;;11.10;99.90;;;10.45;84.06;101523.25;4090012;29;20059;-71
2021/04/22 07:14:53;;;;;;;59.40;39.22;;;11.10;99.90;;;10.50;83.72;101530.78;4090190;29;20070;-71
2021/04/22 07:16:55;;;;;;;57.88;36.80;;;11.20;99.90;;;10.50;84.07;101525.50;4090079;29;20027;-71
2021/04/22 07:18:55;;;;;;;60.80;40.88;;;11.20;99.90;;;10.64;83.21;101529.53;4089026;29;20083;-71
2021/04/22 07:20:56;;;;;;;58.40;39.72;;;11.30;99.90;;;10.73;83.24;101534.81;4089950;29;20032;-71
2021/04/22 07:22:59;;;;;;;56.10;37.85;;;11.30;99.90;;;10.47;83.45;101536.31;4090118;29;20028;-71
2021/04/22 07:25:01;;;;;;;56.90;38.70;;;11.30;99.90;;;10.45;84.29;101517.16;4089929;29;20040;-71
2021/04/22 07:27:02;;;;;;;56.58;38.38;;;11.40;99.90;;;10.50;84.92;101533.41;4088539;29;20047;-71
2021/04/22 07:29:04;;;;;;;58.42;38.08;;;11.30;99.90;;;10.54;84.17;101526.91;4089807;29;20059;-71
2021/04/22 07:31:05;;;;;;;58.15;39.25;;;11.40;99.90;;;10.75;83.83;101534.69;4089993;29;20020;-71
2021/04/22 07:33:07;;;;;;;69.63;39.70;;;11.40;99.90;;;10.41;83.81;101536.88;4089817;29;20095;-71
2021/04/22 07:35:09;;;;;;;57.00;39.78;;;11.50;99.90;;;10.40;84.98;101524.63;4089851;29;20107;-71
2021/04/22 07:37:10;;;;;;;56.42;37.88;;;11.40;99.90;;;10.57;84.53;101539.81;4088709;29;20032;-71
2021/04/22 07:39:11;;;;;;;55.72;36.95;;;11.40;99.90;;;10.80;84.85;101545.66;4088701;29;20573;-71
2021/04/22 07:41:13;;;;;;;56.20;37.40;;;11.50;99.90;;;10.78;84.62;101539.69;4089422;29;20123;-71
2021/04/22 07:43:14;;;;;;;58.38;38.05;;;11.60;99.90;;;10.96;84.75;101545.97;4088426;29;20038;-72
2021/04/22 07:45:18;;;;;;;55.13;38.03;;;11.70;99.90;;;11.05;84.67;101547.78;4088275;29;20035;-72
2021/04/22 07:47:19;;;;;;;61.97;37.53;;;11.80;99.90;;;11.20;83.51;101540.25;4088653;29;20039;-72
2021/04/22 07:49:20;;;;;;;50.38;35.17;;;11.90;99.90;;;11.31;83.11;101564.72;4089823;29;20028;-71
2021/04/22 07:51:21;;;;;;;53.30;35.65;;;12.00;99.90;;;11.28;82.15;101558.88;4075199;29;20055;-72
2021/04/22 07:53:22;;;;;;;53.85;35.95;;;12.00;99.90;;;11.44;83.08;101559.94;4073835;29;20060;-72
2021/04/22 07:55:30;;;;;;;55.50;36.35;;;12.20;99.90;;;11.40;81.82;101568.31;4072392;29;20032;-72
2021/04/22 07:57:31;;;;;;;55.55;37.45;;;12.30;99.90;;;11.53;81.87;101568.81;4073943;29;20032;-71
2021/04/22 07:59:32;;;;;;;54.03;35.53;;;12.40;99.90;;;11.50;81.72;101563.81;4073737;29;20043;-71
2021/04/22 08:01:33;;;;;;;56.90;37.75;;;12.40;99.90;;;11.68;81.52;101543.63;4073540;29;20032;-71
2021/04/22 08:03:34;;;;;;;49.88;35.50;;;12.50;99.90;;;11.75;80.66;101555.31;4056938;29;20108;-71
2021/04/22 08:05:37;;;;;;;57.25;37.63;;;12.60;99.90;;;11.81;80.50;101548.63;4072558;29;20120;-71
2021/04/22 08:07:38;;;;;;;53.05;36.70;;;12.60;99.90;;;12.01;79.88;101543.13;4067527;29;20068;-72
2021/04/22 08:09:39;;;;;;;55.03;33.92;;;12.70;99.90;;;11.96;78.12;101544.53;4086924;29;20031;-72
2021/04/22 08:11:40;;;;;;;50.40;34.33;;;12.80;99.90;;;11.98;78.28;101558.44;4072271;29;20035;-71
2021/04/22 08:13:41;;;;;;;51.38;36.20;;;12.80;99.90;;;11.90;79.10;101553.88;4073654;29;20082;-71
2021/04/22 08:15:47;;;;;;;51.05;34.80;;;12.90;99.90;;;12.01;79.86;101551.06;4072573;29;20028;-71
2021/04/22 08:17:48;;;;;;;51.63;35.22;;;13.00;99.90;;;12.16;79.93;101562.81;4072314;29;20647;-71
2021/04/22 08:19:49;;;;;;;49.97;34.88;;;13.00;99.90;;;12.13;78.66;101567.56;4073581;29;20032;-71
2021/04/22 08:21:50;;;;;;;51.92;34.30;;;13.00;99.90;;;12.27;78.28;101558.31;4080394;29;20079;-71